Time;durP1;ratioP1;P1;durP2;ratioP2;P2;SDS_P1;SDS_P2;PMS_P1;PMS_P2;Temp;Humidity;BMP_temperature;BMP_pressure;BME280_temperature;BME280_humidity;BME280_pressure;Samples;Min_cycle;Max_cycle;Signal;HPM_P1;HPM_P2
2022/12/30 00:01:36;;;;;;;2.53;0.63;;;16.40;66.20;;;;;;7407307;19;19926;-64
2022/12/30 00:04:08;;;;;;;3.38;0.80;;;16.40;66.20;;;;;;7406493;19;19995;-64
2022/12/30 00:06:37;;;;;;;3.38;0.50;;;16.50;66.80;;;;;;7406713;19;19910;-64
2022/12/30 00:09:06;;;;;;;3.80;0.70;;;16.50;66.20;;;;;;7406336;19;19915;-64
2022/12/30 00:11:39;;;;;;;3.20;0.47;;;16.50;66.10;;;;;;7406880;19;19939;-64
2022/12/30 00:33:21;;;;;;;2.28;0.50;;;16.70;65.80;;;;;;7405503;19;19930;-64
2022/12/30 00:35:53;;;;;;;3.78;0.40;;;16.70;65.80;;;;;;7405682;19;19910;-64
2022/12/30 00:38:22;;;;;;;2.55;0.35;;;16.70;65.80;;;;;;7405686;19;19914;-64
2022/12/30 00:43:33;;;;;;;5.00;0.65;;;16.70;65.70;;;;;;7405409;19;19962;-64
2022/12/30 00:46:02;;;;;;;5.18;1.20;;;16.70;65.70;;;;;;7403619;19;19942;-64
2022/12/30 00:56:38;;;;;;;3.70;1.42;;;16.70;65.70;;;;;;7405632;19;20343;-64
2022/12/30 00:59:07;;;;;;;3.30;1.25;;;16.60;65.70;;;;;;7404688;19;19919;-65
2022/12/30 01:01:37;;;;;;;3.40;0.80;;;16.60;65.70;;;;;;7405768;19;19915;-64
2022/12/30 01:04:06;;;;;;;3.47;1.20;;;16.60;65.60;;;;;;7404537;19;20256;-64
2022/12/30 01:06:39;;;;;;;3.85;1.02;;;16.60;65.70;;;;;;7405074;19;19926;-64
2022/12/30 01:09:08;;;;;;;2.80;0.47;;;16.60;65.70;;;;;;7404886;19;19907;-64
2022/12/30 01:11:38;;;;;;;4.47;1.33;;;16.60;65.70;;;;;;7404575;19;19923;-64
2022/12/30 01:14:07;;;;;;;2.47;0.30;;;16.60;65.70;;;;;;7405030;19;20343;-64
2022/12/30 01:16:36;;;;;;;4.03;0.60;;;16.50;65.60;;;;;;7404446;19;19915;-64
2022/12/30 01:19:06;;;;;;;2.05;0.63;;;16.50;65.60;;;;;;7403428;19;19914;-64
2022/12/30 01:21:37;;;;;;;2.25;0.82;;;16.50;65.70;;;;;;7405600;19;19922;-64
2022/12/30 01:24:08;;;;;;;3.95;0.60;;;16.50;65.70;;;;;;7404405;19;19923;-64
2022/12/30 01:26:37;;;;;;;3.30;0.30;;;16.50;65.80;;;;;;7404291;19;20329;-64
2022/12/30 01:29:06;;;;;;;3.03;0.45;;;16.40;65.70;;;;;;7404079;19;19918;-64
2022/12/30 01:31:35;;;;;;;2.30;0.32;;;16.40;65.70;;;;;;7404528;19;19957;-64
2022/12/30 01:34:05;;;;;;;3.45;0.50;;;16.40;65.70;;;;;;7403278;19;19911;-64
2022/12/30 01:36:39;;;;;;;3.55;0.43;;;16.40;65.70;;;;;;7404279;19;20005;-64
2022/12/30 01:39:09;;;;;;;2.75;0.50;;;16.40;65.70;;;;;;7402918;19;20336;-64
2022/12/30 01:41:38;;;;;;;3.42;0.88;;;16.40;65.70;;;;;;7403906;19;19967;-65
2022/12/30 01:44:37;;;;;;;3.58;0.30;;;16.30;65.70;;;;;;7403154;19;20328;-64
2022/12/30 01:47:06;;;;;;;2.78;0.80;;;16.30;65.70;;;;;;7403946;19;20285;-64
2022/12/30 01:49:40;;;;;;;4.35;1.20;;;16.30;65.70;;;;;;7403881;19;19926;-64
2022/12/30 01:52:22;;;;;;;2.75;0.20;;;16.30;65.70;;;;;;7404297;19;19948;-64
2022/12/30 01:54:54;;;;;;;4.53;1.38;;;16.30;65.70;;;;;;7403377;19;20327;-64
2022/12/30 01:57:23;;;;;;;3.83;0.45;;;16.30;65.70;;;;;;7407055;19;19915;-64
2022/12/30 01:59:53;;;;;;;3.67;0.45;;;16.30;65.70;;;;;;7409100;19;19923;-64
2022/12/30 02:02:23;;;;;;;4.03;1.15;;;16.30;65.60;;;;;;7408327;19;19919;-64
2022/12/30 02:04:52;;;;;;;2.78;0.68;;;16.30;65.70;;;;;;7409465;19;20261;-64
2022/12/30 02:07:28;;;;;;;2.22;0.63;;;16.30;65.60;;;;;;7409847;19;20264;-64
2022/12/30 02:09:59;;;;;;;3.95;0.57;;;16.40;65.70;;;;;;7407898;19;19934;-64
2022/12/30 02:12:28;;;;;;;2.78;0.52;;;16.40;65.60;;;;;;7409668;19;19934;-64
2022/12/30 02:14:59;;;;;;;2.63;0.63;;;16.40;65.60;;;;;;7409486;19;19919;-64
2022/12/30 02:17:39;;;;;;;2.70;0.28;;;16.40;65.50;;;;;;7409450;19;19919;-64
2022/12/30 02:21:04;;;;;;;3.60;0.52;;;16.50;65.50;;;;;;7408452;19;20343;-64
2022/12/30 02:23:54;;;;;;;2.95;0.63;;;16.50;65.50;;;;;;7408810;19;19915;-64
2022/12/30 02:26:56;;;;;;;2.67;0.47;;;16.60;65.50;;;;;;7409239;19;19915;-64
2022/12/30 02:29:59;;;;;;;3.38;0.57;;;16.60;65.40;;;;;;7409486;19;19922;-64
2022/12/30 02:32:53;;;;;;;3.78;0.95;;;16.70;65.40;;;;;;7408617;19;19978;-64
2022/12/30 02:35:27;;;;;;;3.10;0.45;;;16.70;65.40;;;;;;7409408;19;19986;-64
2022/12/30 02:38:06;;;;;;;2.70;1.00;;;16.70;65.30;;;;;;7408880;19;19937;-64
2022/12/30 02:46:11;;;;;;;2.90;1.27;;;16.70;65.20;;;;;;7409523;19;19914;-64
2022/12/30 02:48:47;;;;;;;4.20;0.98;;;16.70;65.20;;;;;;7409040;19;19988;-64
2022/12/30 02:53:59;;;;;;;2.47;0.47;;;16.70;65.20;;;;;;7408506;19;19937;-64
2022/12/30 02:56:28;;;;;;;2.75;0.40;;;16.70;65.10;;;;;;7408654;19;19953;-65
2022/12/30 03:04:46;;;;;;;2.22;0.32;;;16.70;65.10;;;;;;7408210;19;19918;-64
2022/12/30 03:07:28;;;;;;;3.47;1.15;;;16.70;65.20;;;;;;7408093;19;19915;-64
2022/12/30 03:12:58;;;;;;;2.60;0.77;;;16.70;65.20;;;;;;7408376;19;19915;-64
2022/12/30 03:15:33;;;;;;;1.20;0.22;;;16.70;65.20;;;;;;7407700;19;19934;-64
2022/12/30 03:18:11;;;;;;;2.03;0.32;;;16.60;65.10;;;;;;7409330;19;19925;-64
2022/12/30 03:20:44;;;;;;;3.33;0.77;;;16.60;65.20;;;;;;7406100;19;19929;-64
2022/12/30 03:28:45;;;;;;;3.38;0.80;;;16.50;65.10;;;;;;7407504;19;19918;-64
2022/12/30 03:31:17;;;;;;;3.33;0.77;;;16.50;65.20;;;;;;7407873;19;19942;-64
2022/12/30 03:33:47;;;;;;;3.08;0.30;;;16.50;65.20;;;;;;7406872;19;19936;-64
2022/12/30 03:36:22;;;;;;;3.85;0.60;;;16.50;65.20;;;;;;7407725;19;19936;-64
2022/12/30 03:38:56;;;;;;;3.72;0.70;;;16.50;65.20;;;;;;7405479;19;19918;-64
2022/12/30 03:41:29;;;;;;;3.50;0.82;;;16.40;65.20;;;;;;7407479;19;19927;-64
2022/12/30 03:44:01;;;;;;;3.08;0.20;;;16.40;65.20;;;;;;7406338;19;19915;-64
2022/12/30 03:46:33;;;;;;;4.43;1.10;;;16.40;65.20;;;;;;7410613;19;19921;-64
2022/12/30 03:49:02;;;;;;;3.08;0.50;;;16.40;65.30;;;;;;7409724;19;19914;-64
2022/12/30 03:51:43;;;;;;;3.05;0.80;;;16.30;65.20;;;;;;7406625;19;19922;-64
2022/12/30 03:54:12;;;;;;;1.98;0.57;;;16.40;65.30;;;;;;7406747;19;19922;-64
2022/12/30 03:56:41;;;;;;;2.78;0.55;;;16.30;65.30;;;;;;7406694;19;20264;-64
2022/12/30 03:59:10;;;;;;;2.80;1.00;;;16.30;65.30;;;;;;7407119;19;19930;-64
2022/12/30 04:01:39;;;;;;;3.13;0.40;;;16.30;65.30;;;;;;7406609;19;19914;-64
2022/12/30 04:04:08;;;;;;;2.40;0.32;;;16.30;65.30;;;;;;7406260;19;19919;-64
2022/12/30 04:06:38;;;;;;;2.65;0.55;;;16.30;65.90;;;;;;7407242;19;19919;-64
2022/12/30 04:09:09;;;;;;;3.88;1.05;;;16.30;65.30;;;;;;7406939;19;19910;-64
2022/12/30 04:11:39;;;;;;;1.58;0.30;;;16.30;65.30;;;;;;7406571;19;19922;-64
2022/12/30 04:14:08;;;;;;;2.55;0.45;;;16.30;65.30;;;;;;7406281;19;20340;-64
2022/12/30 04:16:37;;;;;;;2.05;0.35;;;16.30;65.30;;;;;;7406905;19;19922;-64
2022/12/30 04:19:06;;;;;;;4.43;0.80;;;16.30;65.30;;;;;;7409598;19;19929;-64
2022/12/30 04:21:36;;;;;;;1.67;0.20;;;16.30;65.20;;;;;;7404373;19;19919;-64
2022/12/30 04:24:11;;;;;;;3.92;0.68;;;16.30;65.20;;;;;;7406636;19;19918;-64
2022/12/30 04:26:40;;;;;;;2.75;0.75;;;16.40;65.30;;;;;;7406051;19;19919;-64
2022/12/30 04:29:10;;;;;;;2.83;0.70;;;16.40;65.20;;;;;;7405903;19;19915;-64
2022/12/30 04:31:40;;;;;;;2.22;0.63;;;16.40;65.20;;;;;;7405956;19;19925;-64
2022/12/30 04:34:12;;;;;;;2.78;0.57;;;16.50;65.20;;;;;;7405321;19;19919;-64
2022/12/30 04:36:41;;;;;;;3.25;0.52;;;16.50;65.20;;;;;;7406081;19;19942;-64
2022/12/30 04:39:13;;;;;;;2.50;0.70;;;16.60;65.20;;;;;;7405553;19;20315;-64
2022/12/30 04:41:42;;;;;;;2.35;0.60;;;16.60;65.20;;;;;;7403870;19;19914;-64
2022/12/30 04:44:11;;;;;;;2.47;0.52;;;16.60;65.10;;;;;;7404247;19;19923;-64
2022/12/30 04:46:40;;;;;;;2.67;0.30;;;16.60;65.10;;;;;;7406136;19;19922;-64
2022/12/30 04:49:09;;;;;;;3.05;0.32;;;16.70;65.10;;;;;;7405151;19;19996;-64
2022/12/30 04:51:38;;;;;;;2.67;0.43;;;16.70;65.00;;;;;;7405720;19;19922;-64
2022/12/30 04:54:07;;;;;;;3.25;0.73;;;16.70;65.00;;;;;;7405077;19;19922;-64
2022/12/30 04:56:39;;;;;;;1.85;0.32;;;16.70;65.00;;;;;;7405238;19;19978;-64
2022/12/30 04:59:08;;;;;;;3.40;0.52;;;16.70;64.90;;;;;;7405491;19;19922;-64
2022/12/30 05:01:37;;;;;;;2.30;0.80;;;16.70;64.90;;;;;;7404037;19;19941;-64
2022/12/30 05:04:07;;;;;;;2.55;0.28;;;16.70;64.90;;;;;;7404706;19;19938;-64
2022/12/30 05:06:36;;;;;;;2.85;1.25;;;16.70;64.90;;;;;;7404795;19;20283;-64
2022/12/30 05:09:05;;;;;;;2.80;0.93;;;16.70;64.90;;;;;;7404749;19;19919;-64
2022/12/30 05:11:34;;;;;;;3.55;0.63;;;16.70;64.80;;;;;;7405152;19;20347;-64
2022/12/30 05:14:06;;;;;;;4.30;0.77;;;16.70;64.90;;;;;;7405687;19;19910;-64
2022/12/30 05:16:35;;;;;;;3.97;1.45;;;16.70;64.80;;;;;;7403902;19;20248;-64
2022/12/30 05:19:04;;;;;;;3.13;0.28;;;16.70;64.80;;;;;;7404425;19;19917;-64
2022/12/30 05:21:34;;;;;;;3.33;1.38;;;16.60;64.90;;;;;;7401531;19;19918;-65
2022/12/30 05:26:44;;;;;;;3.28;1.15;;;16.60;64.80;;;;;;7402610;19;20232;-64
2022/12/30 05:29:17;;;;;;;2.00;0.22;;;16.60;64.80;;;;;;7403902;19;19923;-64
2022/12/30 05:31:46;;;;;;;2.25;0.22;;;16.60;64.80;;;;;;7403276;19;19919;-65
2022/12/30 05:34:15;;;;;;;2.85;1.15;;;16.50;64.80;;;;;;7404371;19;19918;-64
2022/12/30 05:36:44;;;;;;;3.17;0.32;;;16.50;64.90;;;;;;7404330;19;20349;-64
2022/12/30 05:39:14;;;;;;;2.35;0.60;;;16.50;64.90;;;;;;7403678;19;19914;-64
2022/12/30 05:41:43;;;;;;;2.33;0.73;;;16.50;64.90;;;;;;7402430;19;19990;-64
2022/12/30 05:44:12;;;;;;;3.45;0.57;;;16.50;64.90;;;;;;7402628;19;19910;-64
2022/12/30 05:46:44;;;;;;;3.03;0.88;;;16.40;64.90;;;;;;7403469;19;20213;-64
2022/12/30 05:49:15;;;;;;;2.80;0.95;;;16.40;64.90;;;;;;7403160;19;19942;-64
2022/12/30 05:51:46;;;;;;;2.60;0.43;;;16.40;64.90;;;;;;7403882;19;19922;-64
2022/12/30 05:54:16;;;;;;;2.95;0.50;;;16.40;64.90;;;;;;7403265;19;19974;-64
2022/12/30 05:56:45;;;;;;;3.67;0.90;;;16.40;64.90;;;;;;7403249;19;20244;-64
2022/12/30 05:59:18;;;;;;;2.33;0.43;;;16.30;64.90;;;;;;7403462;19;19919;-64
2022/12/30 06:01:50;;;;;;;1.55;0.60;;;16.30;64.90;;;;;;7402192;19;20335;-64
2022/12/30 06:04:20;;;;;;;2.97;0.90;;;16.30;64.90;;;;;;7402965;19;19911;-64
2022/12/30 06:06:49;;;;;;;2.50;0.40;;;16.30;65.00;;;;;;7403537;19;19919;-64
2022/12/30 06:09:19;;;;;;;2.67;0.22;;;16.30;65.00;;;;;;7403270;19;19948;-63
2022/12/30 06:11:48;;;;;;;2.13;0.43;;;16.30;65.00;;;;;;7402978;19;19918;-64
2022/12/30 06:14:20;;;;;;;3.05;0.57;;;16.30;65.00;;;;;;7403162;19;19918;-64
2022/12/30 06:16:58;;;;;;;2.22;0.32;;;16.30;65.00;;;;;;7407516;19;19938;-64
2022/12/30 06:19:27;;;;;;;1.50;0.20;;;16.30;65.00;;;;;;7402253;19;20388;-64
2022/12/30 06:21:57;;;;;;;3.47;0.40;;;16.30;64.90;;;;;;7400730;19;19922;-64
2022/12/30 06:24:26;;;;;;;2.10;0.20;;;16.30;64.90;;;;;;7402371;19;19915;-64
2022/12/30 06:26:55;;;;;;;2.90;0.30;;;16.30;64.90;;;;;;7402807;19;19922;-64
2022/12/30 06:29:25;;;;;;;3.63;0.75;;;16.30;64.90;;;;;;7402821;19;19919;-64
2022/12/30 06:31:54;;;;;;;2.30;0.45;;;16.40;64.90;;;;;;7402653;19;19915;-64
2022/12/30 06:34:26;;;;;;;2.42;0.40;;;16.40;64.90;;;;;;7401481;19;19918;-64
2022/12/30 06:36:55;;;;;;;1.95;0.40;;;16.40;64.80;;;;;;7402340;19;19941;-64
2022/12/30 06:39:24;;;;;;;3.33;0.55;;;16.40;64.90;;;;;;7401971;19;19914;-64
2022/12/30 06:41:55;;;;;;;1.75;0.45;;;16.50;64.80;;;;;;7400111;19;19918;-64
2022/12/30 06:44:30;;;;;;;2.35;0.40;;;16.50;64.80;;;;;;7404109;19;19919;-64
2022/12/30 06:46:59;;;;;;;2.25;0.60;;;16.50;64.80;;;;;;7411784;19;19918;-64
2022/12/30 06:49:30;;;;;;;2.47;1.00;;;16.60;64.80;;;;;;7408750;19;19906;-64
2022/12/30 06:51:59;;;;;;;2.80;0.52;;;16.60;64.70;;;;;;7408834;19;19922;-64
2022/12/30 06:54:28;;;;;;;2.35;0.50;;;16.70;64.70;;;;;;7406845;19;19991;-64
2022/12/30 06:56:57;;;;;;;1.95;0.40;;;16.70;64.70;;;;;;7408512;19;20316;-65
2022/12/30 06:59:27;;;;;;;2.05;0.65;;;16.70;64.70;;;;;;7408783;19;20398;-64
2022/12/30 07:01:56;;;;;;;1.48;0.20;;;16.70;64.60;;;;;;7406504;19;19921;-64
2022/12/30 07:04:25;;;;;;;3.17;0.65;;;16.70;64.60;;;;;;7407859;19;20360;-64
2022/12/30 07:06:57;;;;;;;3.42;0.45;;;16.80;64.60;;;;;;7409397;19;19919;-64
2022/12/30 07:09:26;;;;;;;1.88;0.32;;;16.70;64.60;;;;;;7408210;19;19943;-64
2022/12/30 07:11:55;;;;;;;2.53;0.77;;;16.80;64.60;;;;;;7407771;19;20272;-64
2022/12/30 07:14:24;;;;;;;2.15;0.28;;;16.70;64.50;;;;;;7408566;19;19978;-64
2022/12/30 07:16:53;;;;;;;1.25;0.30;;;16.70;64.40;;;;;;7412257;19;19915;-64
2022/12/30 07:19:23;;;;;;;1.70;0.22;;;16.70;64.50;;;;;;7407754;19;19919;-64
2022/12/30 07:21:52;;;;;;;1.67;0.60;;;16.70;64.40;;;;;;7406276;19;19915;-64
2022/12/30 07:24:24;;;;;;;1.95;0.30;;;16.70;64.50;;;;;;7407638;19;19925;-64
2022/12/30 07:26:53;;;;;;;2.47;1.13;;;16.70;64.40;;;;;;7405641;19;19915;-64
2022/12/30 07:29:22;;;;;;;1.50;0.50;;;16.60;64.40;;;;;;7407644;19;19926;-64
2022/12/30 07:31:54;;;;;;;2.22;0.40;;;16.70;64.50;;;;;;7407774;19;19932;-64
2022/12/30 07:34:23;;;;;;;2.10;0.50;;;16.70;64.50;;;;;;7407650;19;20466;-64
2022/12/30 07:36:52;;;;;;;3.17;0.70;;;16.60;64.40;;;;;;7407013;19;19922;-64
2022/12/30 07:39:25;;;;;;;2.42;0.55;;;16.60;64.50;;;;;;7407304;19;20044;-64
2022/12/30 07:41:54;;;;;;;2.78;0.40;;;16.60;64.50;;;;;;7405733;19;20361;-64
2022/12/30 07:44:24;;;;;;;2.33;0.50;;;16.60;64.40;;;;;;7406537;19;20252;-64
2022/12/30 07:46:53;;;;;;;2.30;0.20;;;16.50;64.50;;;;;;7407613;19;19911;-64
2022/12/30 07:49:22;;;;;;;1.58;0.55;;;16.50;64.50;;;;;;7406872;19;20358;-64
2022/12/30 07:51:51;;;;;;;2.72;0.60;;;16.50;64.50;;;;;;7406632;19;19919;-64
2022/12/30 07:54:20;;;;;;;1.90;0.30;;;16.50;64.50;;;;;;7404676;19;19919;-64
2022/12/30 07:56:52;;;;;;;1.90;0.52;;;16.40;64.40;;;;;;7406986;19;20332;-64
2022/12/30 07:59:21;;;;;;;1.90;0.43;;;16.50;64.50;;;;;;7406605;19;20313;-64
2022/12/30 08:01:51;;;;;;;2.50;0.80;;;16.40;64.50;;;;;;7403450;19;19911;-64
2022/12/30 08:04:22;;;;;;;1.40;0.55;;;16.40;64.50;;;;;;7406668;19;19915;-64
2022/12/30 08:06:52;;;;;;;0.95;0.10;;;16.40;64.50;;;;;;7404951;19;19930;-64
2022/12/30 08:09:24;;;;;;;3.00;0.50;;;16.40;64.60;;;;;;7405067;19;19915;-64
2022/12/30 08:11:57;;;;;;;2.40;0.35;;;16.30;64.50;;;;;;7406650;19;19915;-64
2022/12/30 08:14:27;;;;;;;2.83;0.65;;;16.30;64.60;;;;;;7409027;19;19929;-64
2022/12/30 08:16:56;;;;;;;2.08;0.20;;;16.30;64.50;;;;;;7406166;19;19989;-64
2022/12/30 08:19:25;;;;;;;3.45;0.30;;;16.30;64.50;;;;;;7408947;19;20328;-64
2022/12/30 08:21:54;;;;;;;1.55;0.60;;;16.30;64.60;;;;;;7405103;19;20271;-64
2022/12/30 08:24:23;;;;;;;1.77;0.57;;;16.30;64.50;;;;;;7406128;19;20332;-64
2022/12/30 08:26:52;;;;;;;1.63;0.30;;;16.30;64.50;;;;;;7405911;19;19926;-64
2022/12/30 08:29:24;;;;;;;3.03;0.68;;;16.30;64.50;;;;;;7406503;19;20324;-64
2022/12/30 08:31:54;;;;;;;2.42;0.47;;;16.30;64.50;;;;;;7405993;19;20375;-64
2022/12/30 08:34:23;;;;;;;3.53;0.50;;;16.40;64.50;;;;;;7403745;19;19918;-64
2022/12/30 08:36:53;;;;;;;2.20;0.68;;;16.40;64.50;;;;;;7405911;19;20319;-64
2022/12/30 08:39:22;;;;;;;2.60;0.32;;;16.40;64.80;;;;;;7405441;19;19918;-64
2022/12/30 08:41:51;;;;;;;1.52;0.20;;;16.50;64.50;;;;;;7405180;19;19915;-64
2022/12/30 08:44:24;;;;;;;3.03;0.60;;;16.50;64.50;;;;;;7404539;19;19917;-64
2022/12/30 08:46:53;;;;;;;2.22;0.68;;;16.50;64.50;;;;;;7410188;19;19931;-64
2022/12/30 08:49:22;;;;;;;2.58;0.35;;;16.50;64.50;;;;;;7405335;19;19914;-64
2022/12/30 08:51:52;;;;;;;2.25;0.30;;;16.60;64.50;;;;;;7405543;19;19922;-64
2022/12/30 08:54:21;;;;;;;1.42;0.25;;;16.60;64.40;;;;;;7405342;19;19938;-64
2022/12/30 08:56:51;;;;;;;1.63;0.40;;;16.60;64.40;;;;;;7405266;19;19914;-64
2022/12/30 08:59:20;;;;;;;3.53;0.90;;;16.70;64.40;;;;;;7405513;19;19926;-64
2022/12/30 09:01:52;;;;;;;1.60;0.73;;;16.70;64.40;;;;;;7404725;19;19910;-64
2022/12/30 09:04:25;;;;;;;1.83;0.50;;;16.70;64.40;;;;;;7404680;19;19918;-64
2022/12/30 09:07:14;;;;;;;2.28;0.75;;;16.70;64.30;;;;;;7401346;19;19948;-64
2022/12/30 09:09:52;;;;;;;1.88;0.63;;;16.70;64.30;;;;;;7404926;19;19970;-64
2022/12/30 09:12:24;;;;;;;2.75;0.80;;;16.70;64.20;;;;;;7405258;19;19929;-64
2022/12/30 09:14:53;;;;;;;1.98;0.90;;;16.70;64.20;;;;;;7404852;19;19918;-64
2022/12/30 09:17:25;;;;;;;2.45;0.80;;;16.70;64.20;;;;;;7404804;19;19915;-64
2022/12/30 09:19:54;;;;;;;2.50;0.55;;;16.70;64.20;;;;;;7404467;19;19919;-64
2022/12/30 09:22:24;;;;;;;1.40;0.32;;;16.70;64.20;;;;;;7401755;19;20337;-64
2022/12/30 09:25:00;;;;;;;2.17;0.43;;;16.70;64.20;;;;;;7404375;19;19919;-64
2022/12/30 09:27:29;;;;;;;1.58;0.57;;;16.70;64.80;;;;;;7404233;19;19919;-64
2022/12/30 09:29:58;;;;;;;2.05;0.63;;;16.60;64.10;;;;;;7404742;19;19941;-65
2022/12/30 09:32:38;;;;;;;2.22;1.35;;;16.60;64.20;;;;;;7403781;19;20340;-64
2022/12/30 09:35:08;;;;;;;2.45;0.43;;;16.70;64.20;;;;;;7404763;19;19910;-64
2022/12/30 09:37:38;;;;;;;2.15;0.80;;;16.60;64.10;;;;;;7404017;19;19921;-64
2022/12/30 09:40:08;;;;;;;1.63;0.45;;;16.60;64.20;;;;;;7403526;19;19918;-64
2022/12/30 09:45:29;;;;;;;1.65;0.68;;;16.60;64.20;;;;;;7406164;19;19925;-64
2022/12/30 09:48:07;;;;;;;2.08;0.65;;;16.50;64.20;;;;;;7403418;19;19930;-64
2022/12/30 09:50:42;;;;;;;2.17;0.47;;;16.50;64.20;;;;;;7404617;19;19918;-64
2022/12/30 09:53:16;;;;;;;2.60;0.50;;;16.50;64.30;;;;;;7403550;19;19911;-64
2022/12/30 09:55:52;;;;;;;1.40;0.32;;;16.50;64.30;;;;;;7403963;19;19918;-64
2022/12/30 09:58:24;;;;;;;;;;;16.50;64.30;;;;;;7405558;19;19918;-64
2022/12/30 10:00:56;;;;;;;2.83;0.50;;;16.50;64.30;;;;;;7403235;19;19935;-64
2022/12/30 10:03:29;;;;;;;2.17;0.80;;;16.40;64.30;;;;;;7401464;19;19974;-64
2022/12/30 10:06:09;;;;;;;1.92;0.50;;;16.40;64.30;;;;;;7403584;19;19919;-64
2022/12/30 10:08:56;;;;;;;1.77;0.25;;;16.40;64.30;;;;;;7403133;19;19915;-64
2022/12/30 10:11:35;;;;;;;1.58;0.20;;;16.40;64.30;;;;;;7402752;19;19945;-64
2022/12/30 10:14:15;;;;;;;1.55;0.35;;;16.40;64.40;;;;;;7403028;19;19942;-64
2022/12/30 10:16:58;;;;;;;2.58;0.30;;;16.40;64.40;;;;;;7403127;19;19921;-64
2022/12/30 10:19:39;;;;;;;1.58;0.40;;;16.40;64.40;;;;;;7408572;19;19918;-64
2022/12/30 10:22:17;;;;;;;3.60;0.28;;;16.30;64.40;;;;;;7408540;19;19946;-64
2022/12/30 10:24:56;;;;;;;1.25;0.22;;;16.30;64.40;;;;;;7409404;19;19970;-64
2022/12/30 10:27:33;;;;;;;1.38;0.43;;;16.30;64.40;;;;;;7409201;19;19922;-64
2022/12/30 10:30:03;;;;;;;2.17;0.52;;;16.30;64.40;;;;;;7409198;19;19946;-64
2022/12/30 10:32:34;;;;;;;1.63;0.20;;;16.30;64.40;;;;;;7409102;19;19923;-65
2022/12/30 10:35:16;;;;;;;1.70;0.25;;;16.30;64.30;;;;;;7409308;19;19930;-64
2022/12/30 10:37:45;;;;;;;1.95;0.30;;;16.30;64.40;;;;;;7408954;19;19914;-64
2022/12/30 10:40:17;;;;;;;1.90;0.45;;;16.30;64.90;;;;;;7408760;19;19923;-64
2022/12/30 10:43:10;;;;;;;1.67;0.45;;;16.30;64.30;;;;;;7409857;19;19938;-64
2022/12/30 10:46:09;;;;;;;1.40;0.22;;;16.40;64.40;;;;;;7408856;19;19950;-64
2022/12/30 10:49:27;;;;;;;2.63;0.50;;;16.40;64.40;;;;;;7407855;19;19918;-64
2022/12/30 10:51:59;;;;;;;1.58;0.40;;;16.40;64.40;;;;;;7404576;19;19926;-64
2022/12/30 10:54:28;;;;;;;1.13;0.50;;;16.50;64.30;;;;;;7407711;19;19918;-64
2022/12/30 10:56:57;;;;;;;2.13;0.40;;;16.50;64.40;;;;;;7408546;19;19921;-64
2022/12/30 10:59:29;;;;;;;2.63;0.65;;;16.60;64.30;;;;;;7408193;19;20249;-64
2022/12/30 11:02:09;;;;;;;3.42;1.15;;;16.60;64.30;;;;;;7407956;19;19917;-64
2022/12/30 11:04:41;;;;;;;2.92;0.95;;;16.60;64.30;;;;;;7405957;19;19923;-64
2022/12/30 11:07:15;;;;;;;2.67;0.60;;;16.70;64.20;;;;;;7408694;19;20249;-64
2022/12/30 11:09:44;;;;;;;3.47;1.08;;;16.70;64.30;;;;;;7407953;19;19918;-64
2022/12/30 11:15:10;;;;;;;1.45;0.25;;;16.70;64.10;;;;;;7408437;19;19922;-64
2022/12/30 11:17:43;;;;;;;3.63;0.63;;;16.80;64.20;;;;;;7407624;19;19933;-64
2022/12/30 11:20:34;;;;;;;3.05;0.85;;;16.70;64.10;;;;;;7406644;19;20391;-64
2022/12/30 11:23:08;;;;;;;1.33;0.20;;;16.80;64.10;;;;;;7406969;19;20385;-64
2022/12/30 11:25:40;;;;;;;1.48;0.22;;;16.80;64.00;;;;;;7407810;19;19922;-64
2022/12/30 11:28:17;;;;;;;1.33;0.75;;;16.80;64.00;;;;;;7407707;19;19923;-64
2022/12/30 11:30:58;;;;;;;2.13;0.32;;;16.70;64.00;;;;;;7406022;19;19914;-64
2022/12/30 11:33:32;;;;;;;2.50;0.60;;;16.70;64.00;;;;;;7407388;19;19915;-65
2022/12/30 11:36:15;;;;;;;2.85;0.98;;;16.70;63.90;;;;;;7407333;19;19918;-64
2022/12/30 11:38:48;;;;;;;1.70;0.43;;;16.70;63.90;;;;;;7407444;19;19915;-64
2022/12/30 11:41:29;;;;;;;1.27;0.43;;;16.70;64.00;;;;;;7409598;19;19926;-64
2022/12/30 11:44:16;;;;;;;2.05;0.70;;;16.70;64.00;;;;;;7405221;19;19945;-64
2022/12/30 11:46:49;;;;;;;1.58;0.28;;;16.70;64.00;;;;;;7407208;19;19922;-64
2022/12/30 11:49:27;;;;;;;1.20;0.22;;;16.70;64.00;;;;;;7406949;19;19914;-64
2022/12/30 11:51:59;;;;;;;3.45;0.20;;;16.70;64.00;;;;;;7406717;19;20335;-64
2022/12/30 11:54:33;;;;;;;1.77;0.40;;;16.60;64.00;;;;;;7405326;19;19934;-64
2022/12/30 11:57:06;;;;;;;2.42;0.47;;;16.60;64.00;;;;;;7406748;19;19922;-64
2022/12/30 11:59:38;;;;;;;2.58;0.15;;;16.60;64.00;;;;;;7407510;19;19932;-64
2022/12/30 12:02:18;;;;;;;1.55;0.43;;;16.60;64.00;;;;;;7406400;19;20368;-64
2022/12/30 12:04:47;;;;;;;1.85;0.45;;;16.60;64.00;;;;;;7406240;19;19919;-64
2022/12/30 12:07:27;;;;;;;1.20;0.63;;;16.50;64.00;;;;;;7406714;19;19921;-64
2022/12/30 12:10:08;;;;;;;0.90;0.15;;;16.50;64.10;;;;;;7406820;19;19938;-64
2022/12/30 12:12:45;;;;;;;1.77;0.20;;;16.50;64.10;;;;;;7406804;19;19911;-64
2022/12/30 12:15:24;;;;;;;2.45;0.68;;;16.50;64.10;;;;;;7406355;19;20351;-64
2022/12/30 12:17:59;;;;;;;3.03;0.70;;;16.50;64.10;;;;;;7406153;19;19915;-64
2022/12/30 12:20:35;;;;;;;1.65;0.20;;;16.50;64.20;;;;;;7405114;19;19934;-64
2022/12/30 12:23:11;;;;;;;1.90;0.10;;;16.40;64.10;;;;;;7405124;19;19918;-64
2022/12/30 12:25:52;;;;;;;0.98;0.10;;;16.40;64.10;;;;;;7406193;19;19986;-64
2022/12/30 12:28:27;;;;;;;1.30;0.20;;;16.40;64.10;;;;;;7404123;19;19918;-64
2022/12/30 12:31:07;;;;;;;1.85;0.43;;;16.40;64.20;;;;;;7405799;19;19947;-64
2022/12/30 12:33:43;;;;;;;2.10;0.52;;;16.40;64.20;;;;;;7405415;19;19918;-64
2022/12/30 12:36:23;;;;;;;1.52;0.50;;;16.40;64.20;;;;;;7405721;19;19926;-64
2022/12/30 12:39:00;;;;;;;3.22;0.75;;;16.40;64.20;;;;;;7405305;19;20272;-64
2022/12/30 12:41:53;;;;;;;2.28;0.40;;;16.30;64.20;;;;;;7403203;19;19926;-64
2022/12/30 12:44:40;;;;;;;1.25;0.38;;;16.40;64.20;;;;;;7404600;19;19949;-64
2022/12/30 12:47:21;;;;;;;1.67;0.93;;;16.30;64.10;;;;;;7403525;19;20299;-64
2022/12/30 12:50:07;;;;;;;1.38;0.22;;;16.40;64.20;;;;;;7405620;19;19915;-64
2022/12/30 12:52:51;;;;;;;2.20;0.70;;;16.30;64.30;;;;;;7405605;19;19922;-64
2022/12/30 12:55:32;;;;;;;1.17;0.10;;;16.30;64.20;;;;;;7405351;19;20336;-64
2022/12/30 12:58:10;;;;;;;1.73;0.15;;;16.40;64.30;;;;;;7405273;19;19942;-64
2022/12/30 13:00:53;;;;;;;1.58;0.35;;;16.40;64.20;;;;;;7403924;19;19923;-64
2022/12/30 13:03:48;;;;;;;2.40;0.22;;;16.40;64.30;;;;;;7403521;19;19915;-64
2022/12/30 13:06:26;;;;;;;1.33;0.10;;;16.50;64.30;;;;;;7405021;19;19922;-64
2022/12/30 13:09:15;;;;;;;1.95;0.45;;;16.50;64.30;;;;;;7405872;19;19922;-63
2022/12/30 13:11:51;;;;;;;1.67;0.20;;;16.60;64.30;;;;;;7404787;19;20268;-64
2022/12/30 13:14:35;;;;;;;1.05;0.20;;;16.60;64.30;;;;;;7404617;19;19911;-64
2022/12/30 13:17:12;;;;;;;1.13;0.20;;;16.60;64.30;;;;;;7404765;19;19914;-64
2022/12/30 13:19:42;;;;;;;1.15;0.28;;;16.70;64.40;;;;;;7404164;19;19935;-64
2022/12/30 13:22:17;;;;;;;2.00;0.68;;;16.70;64.30;;;;;;7404562;19;19914;-64
2022/12/30 13:24:49;;;;;;;1.52;0.17;;;16.70;64.20;;;;;;7401986;19;19918;-63
2022/12/30 13:27:30;;;;;;;1.40;0.20;;;16.70;64.20;;;;;;7404223;19;19915;-64
2022/12/30 13:30:05;;;;;;;1.88;0.20;;;16.80;64.20;;;;;;7404162;19;19927;-64
2022/12/30 13:32:43;;;;;;;0.98;0.35;;;16.80;64.20;;;;;;7404382;19;19917;-64
2022/12/30 13:35:41;;;;;;;1.83;0.20;;;16.80;64.80;;;;;;7403751;19;19919;-64
2022/12/30 13:38:24;;;;;;;1.95;0.10;;;16.80;64.20;;;;;;7403858;19;19927;-64
2022/12/30 13:41:09;;;;;;;1.17;0.40;;;16.80;64.20;;;;;;7404337;19;19930;-64
2022/12/30 13:43:42;;;;;;;1.85;0.20;;;16.80;64.10;;;;;;7402860;19;19921;-64
2022/12/30 13:46:22;;;;;;;2.05;0.50;;;16.80;64.10;;;;;;7403626;19;19923;-64
2022/12/30 13:48:55;;;;;;;1.20;0.40;;;16.80;64.10;;;;;;7403651;19;19952;-64
2022/12/30 13:51:27;;;;;;;1.98;0.20;;;16.80;64.20;;;;;;7401859;19;19914;-64
2022/12/30 13:53:58;;;;;;;1.48;0.20;;;16.70;64.10;;;;;;7407934;19;19910;-64
2022/12/30 13:56:37;;;;;;;1.75;0.15;;;16.70;64.10;;;;;;7410049;19;19918;-64
2022/12/30 13:59:07;;;;;;;1.00;0.20;;;16.70;64.10;;;;;;7410183;19;19918;-64
2022/12/30 14:01:40;;;;;;;1.35;0.40;;;16.70;64.10;;;;;;7409803;19;19910;-64
2022/12/30 14:04:33;;;;;;;1.73;0.10;;;16.70;64.10;;;;;;7407676;19;19911;-64
2022/12/30 14:07:02;;;;;;;2.08;0.20;;;16.60;64.10;;;;;;7409869;19;19926;-64
2022/12/30 14:09:35;;;;;;;1.23;0.40;;;16.70;64.20;;;;;;7409815;19;19918;-64
2022/12/30 14:12:33;;;;;;;2.25;0.55;;;16.60;64.10;;;;;;7409954;19;20304;-64
2022/12/30 14:15:34;;;;;;;2.30;0.45;;;16.60;64.80;;;;;;7409551;19;19914;-64
2022/12/30 14:18:15;;;;;;;0.75;0.15;;;16.60;64.20;;;;;;7409433;19;19919;-64
2022/12/30 14:20:55;;;;;;;1.13;0.20;;;16.60;64.20;;;;;;7408028;19;19914;-64
2022/12/30 14:23:45;;;;;;;1.17;0.43;;;16.60;64.20;;;;;;7408599;19;19919;-64